createdAt,value
2023-01-09T00:01:43.161Z,6.05
2023-01-09T00:04:30.086Z,6.00
2023-01-09T00:07:10.122Z,5.98
2023-01-09T00:10:04.071Z,5.97
2023-01-09T00:12:51.079Z,5.94
2023-01-09T00:15:24.217Z,5.90
2023-01-09T00:18:11.104Z,5.89
2023-01-09T00:20:51.153Z,5.84
2023-01-09T00:23:45.105Z,5.85
2023-01-09T00:26:32.083Z,5.83
2023-01-09T00:29:06.239Z,5.84
2023-01-09T00:31:53.081Z,5.85
2023-01-09T00:34:33.100Z,5.85
2023-01-09T00:37:27.153Z,5.85
2023-01-09T00:40:21.087Z,5.89
2023-01-09T00:43:15.147Z,5.90
2023-01-09T00:46:02.134Z,5.93
2023-01-09T00:48:42.091Z,5.93
2023-01-09T00:51:31.087Z,5.94
2023-01-09T00:54:11.124Z,5.92
2023-01-09T00:57:05.154Z,5.93
2023-01-09T00:59:52.125Z,5.93
2023-01-09T01:02:32.236Z,5.92
2023-01-09T01:05:44.155Z,5.90
2023-01-09T01:08:31.214Z,5.91
2023-01-09T01:11:11.205Z,5.91
2023-01-09T01:13:58.086Z,5.94
2023-01-09T01:16:39.143Z,5.92
2023-01-09T01:19:26.123Z,5.90
2023-01-09T01:22:06.145Z,5.90
2023-01-09T01:25:00.097Z,5.86
2023-01-09T01:27:47.196Z,5.85
2023-01-09T01:30:29.163Z,5.83
2023-01-09T01:33:17.116Z,5.79
2023-01-09T01:35:50.239Z,5.77
2023-01-09T01:38:38.126Z,5.75
2023-01-09T01:41:12.397Z,5.75
2023-01-09T01:44:12.150Z,5.73
2023-01-09T01:47:08.139Z,5.71
2023-01-09T01:50:02.143Z,5.71
2023-01-09T01:52:54.098Z,5.71
2023-01-09T01:55:27.233Z,5.71
2023-01-09T01:58:18.271Z,5.72
2023-01-09T02:00:54.459Z,5.71
2023-01-09T02:03:43.110Z,5.71
2023-01-09T02:06:17.281Z,5.68
2023-01-09T02:09:04.116Z,5.67
2023-01-09T02:11:45.216Z,5.68
2023-01-09T02:14:44.128Z,5.70
2023-01-09T02:17:49.142Z,5.71
2023-01-09T02:20:37.361Z,5.70
2023-01-09T02:23:58.121Z,5.72
2023-01-09T02:26:59.296Z,5.71
2023-01-09T02:30:06.168Z,5.71
2023-01-09T02:32:55.173Z,5.70
2023-01-09T02:36:24.177Z,5.69
2023-01-09T02:39:20.166Z,5.69
2023-01-09T02:42:04.168Z,5.69
2023-01-09T02:44:51.206Z,5.69
2023-01-09T02:47:24.323Z,5.70
2023-01-09T02:50:16.218Z,5.70
2023-01-09T02:53:11.333Z,5.72
2023-01-09T02:56:11.197Z,5.75
2023-01-09T02:58:56.620Z,5.76
2023-01-09T03:02:02.276Z,5.80
2023-01-09T03:05:24.246Z,5.83
2023-01-09T03:08:15.177Z,5.85
2023-01-09T03:11:28.173Z,5.88
2023-01-09T03:14:21.277Z,5.90
2023-01-09T03:16:59.248Z,5.92
2023-01-09T03:19:48.233Z,5.92
2023-01-09T03:22:21.241Z,5.95
2023-01-09T03:25:08.216Z,5.97
2023-01-09T03:27:41.259Z,6.02
2023-01-09T03:30:28.159Z,6.05
2023-01-09T03:33:02.361Z,6.10
2023-01-09T03:35:49.208Z,6.13
2023-01-09T03:38:29.212Z,6.16
2023-01-09T03:41:16.166Z,6.19
2023-01-09T03:43:49.330Z,6.22
2023-01-09T03:46:36.182Z,6.26
2023-01-09T03:49:09.413Z,6.30
2023-01-09T03:51:56.185Z,6.31
2023-01-09T03:54:36.207Z,6.36
2023-01-09T03:57:31.178Z,6.38
2023-01-09T04:00:19.249Z,6.42
2023-01-09T04:02:59.212Z,6.43
2023-01-09T04:05:53.246Z,6.44
2023-01-09T04:08:40.217Z,6.47
2023-01-09T04:11:20.233Z,6.48
2023-01-09T04:14:07.267Z,6.50
2023-01-09T04:16:40.359Z,6.53
2023-01-09T04:19:27.193Z,6.55
2023-01-09T04:22:07.177Z,6.56
2023-01-09T04:25:01.186Z,6.58
2023-01-09T04:27:55.195Z,6.58
2023-01-09T04:30:42.195Z,6.59
2023-01-09T04:33:15.336Z,6.59
2023-01-09T04:36:02.222Z,6.58
2023-01-09T04:38:35.318Z,6.59
2023-01-09T04:41:42.181Z,6.61
2023-01-09T04:44:15.330Z,6.62
2023-01-09T04:47:05.184Z,6.62
2023-01-09T04:49:45.199Z,6.63
2023-01-09T04:52:33.251Z,6.64
2023-01-09T04:55:07.615Z,6.64
2023-01-09T04:57:54.217Z,6.64
2023-01-09T05:00:34.176Z,6.66
2023-01-09T05:03:21.196Z,6.67
2023-01-09T05:06:01.198Z,6.69
2023-01-09T05:08:48.213Z,6.69
2023-01-09T05:11:28.297Z,6.69
2023-01-09T05:14:22.182Z,6.72
2023-01-09T05:17:09.281Z,6.73
2023-01-09T05:19:42.637Z,6.74
2023-01-09T05:22:29.207Z,6.74
2023-01-09T05:25:09.271Z,6.74
2023-01-09T05:28:03.209Z,6.72
2023-01-09T05:30:57.232Z,6.73
2023-01-09T05:33:51.209Z,6.74
2023-01-09T05:36:45.240Z,6.74
2023-01-09T05:39:32.221Z,6.75
2023-01-09T05:42:05.401Z,6.75
2023-01-09T05:44:52.248Z,6.76
2023-01-09T05:47:25.305Z,6.78
2023-01-09T05:50:12.213Z,6.81
2023-01-09T05:52:52.213Z,6.79
2023-01-09T05:55:47.254Z,6.80
2023-01-09T05:58:34.279Z,6.82
2023-01-09T06:01:07.381Z,6.81
2023-01-09T06:03:54.232Z,6.81
2023-01-09T06:06:27.426Z,6.82
2023-01-09T06:09:14.235Z,6.83
2023-01-09T06:11:47.310Z,6.85
2023-01-09T06:14:34.222Z,6.86
2023-01-09T06:17:07.484Z,6.86
2023-01-09T06:19:54.203Z,6.84
2023-01-09T06:22:34.235Z,6.86
2023-01-09T06:25:21.419Z,6.87
2023-01-09T06:27:55.336Z,6.89
2023-01-09T06:30:42.231Z,6.88
2023-01-09T06:33:22.268Z,6.88
2023-01-09T06:36:16.223Z,6.87
2023-01-09T06:39:03.209Z,6.87
2023-01-09T06:41:37.227Z,6.88
2023-01-09T06:44:31.280Z,6.90
2023-01-09T06:47:25.250Z,6.90
2023-01-09T06:50:13.226Z,6.89
2023-01-09T06:52:53.252Z,6.92
2023-01-09T06:55:47.240Z,6.93
2023-01-09T06:58:34.219Z,6.95
2023-01-09T07:01:07.514Z,6.94
2023-01-09T07:03:55.252Z,6.93
2023-01-09T07:06:28.349Z,6.95
2023-01-09T07:09:15.225Z,6.98
2023-01-09T07:11:51.399Z,6.98
2023-01-09T07:14:38.265Z,6.98
2023-01-09T07:17:11.377Z,6.98
2023-01-09T07:19:58.264Z,6.97
2023-01-09T07:22:31.495Z,6.97
2023-01-09T07:25:18.289Z,6.97
2023-01-09T07:27:51.378Z,6.97
2023-01-09T07:30:40.255Z,6.99
2023-01-09T07:33:20.245Z,6.96
2023-01-09T07:36:07.234Z,6.96
2023-01-09T07:38:50.302Z,6.93
2023-01-09T07:41:44.259Z,6.88
2023-01-09T07:44:38.270Z,6.92
2023-01-09T07:47:32.270Z,6.90
2023-01-09T07:50:26.265Z,6.87
2023-01-09T07:53:13.268Z,6.87
2023-01-09T07:55:56.266Z,6.85
2023-01-09T07:58:50.269Z,6.85
2023-01-09T08:01:37.346Z,6.86
2023-01-09T08:04:10.387Z,6.87
2023-01-09T08:06:57.276Z,6.86
2023-01-09T08:09:30.497Z,6.86
2023-01-09T08:12:17.276Z,6.87
2023-01-09T08:14:51.395Z,6.89
2023-01-09T08:17:38.364Z,6.95
2023-01-09T08:20:19.382Z,6.99
2023-01-09T08:23:13.291Z,7.03
2023-01-09T08:26:07.272Z,7.10
2023-01-09T08:28:55.287Z,7.28
2023-01-09T08:31:28.438Z,7.36
2023-01-09T08:34:16.292Z,7.38
2023-01-09T08:36:49.412Z,7.42
2023-01-09T08:39:36.276Z,7.38
2023-01-09T08:42:34.266Z,7.56
2023-01-09T08:45:47.291Z,7.55
2023-01-09T08:48:41.296Z,7.52
2023-01-09T08:51:28.324Z,7.48
2023-01-09T08:54:08.285Z,7.46
2023-01-09T08:57:02.321Z,7.42
2023-01-09T08:59:56.392Z,7.40
2023-01-09T09:02:50.373Z,7.42
2023-01-09T09:05:46.791Z,7.39
2023-01-09T09:08:33.298Z,7.34
2023-01-09T09:11:13.306Z,7.35
2023-01-09T09:14:00.296Z,7.37
2023-01-09T09:16:34.420Z,7.35
2023-01-09T09:19:21.304Z,7.34
2023-01-09T09:21:54.564Z,7.37
2023-01-09T09:24:41.294Z,7.42
2023-01-09T09:27:14.400Z,7.44
2023-01-09T09:30:01.351Z,7.46
2023-01-09T09:32:45.307Z,7.47
2023-01-09T09:35:40.338Z,7.52
2023-01-09T09:38:27.333Z,7.55
2023-01-09T09:41:53.326Z,7.50
2023-01-09T09:45:16.322Z,7.50
2023-01-09T09:48:26.317Z,7.54
2023-01-09T09:51:49.343Z,7.56
2023-01-09T09:54:45.322Z,7.54
2023-01-09T09:57:24.407Z,7.47
2023-01-09T10:00:13.301Z,7.43
2023-01-09T10:03:06.200Z,7.45
2023-01-09T10:05:57.321Z,7.48
2023-01-09T10:09:05.335Z,7.50
2023-01-09T10:12:33.329Z,7.60
2023-01-09T10:15:51.375Z,7.73
2023-01-09T10:18:56.316Z,7.78
2023-01-09T10:21:41.474Z,7.77
2023-01-09T10:24:45.334Z,7.77
2023-01-09T10:27:47.334Z,7.76
2023-01-09T10:30:46.352Z,7.74
2023-01-09T10:34:03.363Z,7.73
2023-01-09T10:37:08.388Z,7.65
2023-01-09T10:40:13.334Z,7.60
2023-01-09T10:43:01.353Z,7.56
2023-01-09T10:46:01.325Z,7.49
2023-01-09T10:48:52.351Z,7.41
2023-01-09T10:51:35.430Z,7.37
2023-01-09T10:54:30.340Z,7.35
2023-01-09T10:57:07.474Z,7.33
2023-01-09T10:59:54.337Z,7.30
2023-01-09T11:02:40.580Z,7.30
2023-01-09T11:05:36.337Z,7.35
2023-01-09T11:08:15.457Z,7.59
2023-01-09T11:11:05.350Z,7.57
2023-01-09T11:13:53.356Z,7.56
2023-01-09T11:16:47.344Z,7.49
2023-01-09T11:19:41.354Z,7.40
2023-01-09T11:22:28.352Z,7.40
2023-01-09T11:25:10.432Z,7.39
2023-01-09T11:28:09.358Z,7.38
2023-01-09T11:31:01.626Z,7.38
2023-01-09T11:33:55.359Z,7.36
2023-01-09T11:36:31.551Z,7.35
2023-01-09T11:39:34.364Z,7.34
2023-01-09T11:42:17.393Z,7.31
2023-01-09T11:45:12.343Z,7.31
2023-01-09T11:48:06.346Z,7.31
2023-01-09T11:51:10.363Z,7.30
2023-01-09T11:54:08.365Z,7.30
2023-01-09T11:56:49.417Z,7.25
2023-01-09T11:59:33.407Z,7.25
2023-01-09T12:02:38.373Z,7.21
2023-01-09T12:05:24.390Z,7.18
2023-01-09T12:08:30.379Z,7.18
2023-01-09T12:11:06.491Z,7.15
2023-01-09T12:14:30.404Z,7.14
2023-01-09T12:17:23.350Z,7.10
2023-01-09T12:20:45.405Z,7.09
2023-01-09T12:23:46.417Z,7.07
2023-01-09T12:26:39.371Z,7.04
2023-01-09T12:29:21.521Z,7.02
2023-01-09T12:32:23.427Z,6.97
2023-01-09T12:35:03.506Z,6.96
2023-01-09T12:38:23.426Z,6.98
2023-01-09T12:41:09.412Z,6.97
2023-01-09T12:44:27.388Z,6.96
2023-01-09T12:47:40.385Z,6.98
2023-01-09T12:50:46.547Z,6.98
2023-01-09T12:53:45.395Z,6.97
2023-01-09T12:56:39.395Z,6.95
2023-01-09T12:59:47.479Z,6.96
2023-01-09T13:03:07.191Z,6.95
2023-01-09T13:05:53.669Z,6.96
2023-01-09T13:08:52.402Z,6.92
2023-01-09T13:11:45.409Z,6.89
2023-01-09T13:14:50.394Z,6.88
2023-01-09T13:17:47.426Z,6.84
2023-01-09T13:20:46.544Z,6.83
2023-01-09T13:23:54.431Z,6.81
2023-01-09T13:26:32.663Z,6.77
2023-01-09T13:29:30.417Z,6.78
2023-01-09T13:32:14.422Z,6.78
2023-01-09T13:35:09.390Z,6.75
2023-01-09T13:37:59.431Z,6.72
2023-01-09T13:40:35.539Z,6.67
2023-01-09T13:43:24.427Z,6.70
2023-01-09T13:46:06.499Z,6.70
2023-01-09T13:49:00.395Z,6.71
2023-01-09T13:51:57.443Z,6.67
2023-01-09T13:55:09.393Z,6.68
2023-01-09T13:58:12.422Z,6.70
2023-01-09T14:00:45.536Z,6.71
2023-01-09T14:03:40.425Z,6.73
2023-01-09T14:06:29.415Z,6.72
2023-01-09T14:09:34.427Z,6.70
2023-01-09T14:12:13.522Z,6.74
2023-01-09T14:15:04.411Z,6.73
2023-01-09T14:17:40.516Z,6.77
2023-01-09T14:20:34.415Z,6.76
2023-01-09T14:23:42.328Z,6.75
2023-01-09T14:26:24.464Z,6.72
2023-01-09T14:29:05.434Z,6.72
2023-01-09T14:31:52.464Z,6.73
2023-01-09T14:34:42.541Z,6.74
2023-01-09T14:37:30.470Z,6.73
2023-01-09T14:40:11.437Z,6.72
2023-01-09T14:43:04.442Z,6.72
2023-01-09T14:45:49.181Z,6.72
2023-01-09T14:48:45.467Z,6.73
2023-01-09T14:51:34.442Z,6.71
2023-01-09T14:54:19.538Z,6.71
2023-01-09T14:57:07.432Z,6.68
2023-01-09T14:59:40.533Z,6.66
2023-01-09T15:02:28.508Z,6.63
2023-01-09T15:05:15.451Z,6.58
2023-01-09T15:08:14.451Z,6.56
2023-01-09T15:11:03.432Z,6.50
2023-01-09T15:13:43.446Z,6.46
2023-01-09T15:16:39.514Z,6.47
2023-01-09T15:19:26.429Z,6.48
2023-01-09T15:22:33.516Z,6.48
2023-01-09T15:25:40.607Z,6.46
2023-01-09T15:28:32.619Z,6.35
2023-01-09T15:31:23.588Z,6.30
2023-01-09T15:34:04.478Z,6.28
2023-01-09T15:36:52.557Z,6.28
2023-01-09T15:39:40.442Z,6.28
2023-01-09T15:42:59.506Z,6.28
2023-01-09T15:45:55.494Z,6.31
2023-01-09T15:48:52.454Z,6.33
2023-01-09T15:51:47.468Z,6.32
2023-01-09T15:54:37.462Z,6.34
2023-01-09T15:57:34.166Z,6.34
2023-01-09T16:00:40.467Z,6.34
2023-01-09T16:03:32.676Z,6.35
2023-01-09T16:06:35.481Z,6.34
2023-01-09T16:09:15.498Z,6.33
2023-01-09T16:12:17.450Z,6.30
2023-01-09T16:15:06.538Z,6.26
2023-01-09T16:17:46.491Z,6.24
2023-01-09T16:20:40.520Z,6.24
2023-01-09T16:23:30.477Z,6.25
2023-01-09T16:26:18.617Z,6.25
2023-01-09T16:29:44.460Z,6.25
2023-01-09T16:32:39.507Z,6.23
2023-01-09T16:35:35.512Z,6.25
2023-01-09T16:38:18.469Z,6.23
2023-01-09T16:41:34.489Z,6.21
2023-01-09T16:44:21.466Z,6.18
2023-01-09T16:46:56.889Z,6.18
2023-01-09T16:49:43.549Z,6.14
2023-01-09T16:52:32.513Z,6.13
2023-01-09T16:55:19.506Z,6.08
2023-01-09T16:57:52.617Z,6.08
2023-01-09T17:00:39.504Z,6.06
2023-01-09T17:03:12.612Z,6.05
2023-01-09T17:06:01.480Z,6.07
2023-01-09T17:08:48.502Z,6.07
2023-01-09T17:11:37.530Z,6.07
2023-01-09T17:14:17.501Z,6.04
2023-01-09T17:17:04.535Z,6.04
2023-01-09T17:19:44.521Z,6.04
2023-01-09T17:22:38.488Z,6.05
2023-01-09T17:25:43.459Z,6.06
2023-01-09T17:28:34.001Z,6.05
2023-01-09T17:31:20.559Z,6.03
2023-01-09T17:34:00.495Z,6.02
2023-01-09T17:36:54.492Z,6.02
2023-01-09T17:39:41.516Z,5.98
2023-01-09T17:42:21.497Z,5.98
2023-01-09T17:45:15.538Z,5.99
2023-01-09T17:48:02.502Z,5.97
2023-01-09T17:50:42.524Z,5.99
2023-01-09T17:53:36.540Z,5.98
2023-01-09T17:56:33.538Z,5.98
2023-01-09T17:59:16.529Z,5.95
2023-01-09T18:02:10.542Z,5.94
2023-01-09T18:04:57.547Z,5.92
2023-01-09T18:07:38.513Z,5.92
2023-01-09T18:10:31.538Z,5.92
2023-01-09T18:13:04.705Z,5.92
2023-01-09T18:15:52.503Z,5.89
2023-01-09T18:18:25.705Z,5.89
2023-01-09T18:21:13.535Z,5.89
2023-01-09T18:23:47.611Z,5.89
2023-01-09T18:26:34.520Z,5.87
2023-01-09T18:29:07.711Z,5.86
2023-01-09T18:31:54.602Z,5.85
2023-01-09T18:34:27.677Z,5.84
2023-01-09T18:37:14.634Z,5.83
2023-01-09T18:39:47.647Z,5.83
2023-01-09T18:42:34.538Z,5.77
2023-01-09T18:45:07.816Z,5.72
2023-01-09T18:47:54.517Z,5.71
2023-01-09T18:50:27.730Z,5.71
2023-01-09T18:53:14.558Z,5.71
2023-01-09T18:55:47.646Z,5.69
2023-01-09T18:58:34.538Z,5.67
2023-01-09T19:01:08.800Z,5.67
2023-01-09T19:03:55.601Z,5.65
2023-01-09T19:06:36.551Z,5.65
2023-01-09T19:09:30.570Z,5.65
2023-01-09T19:12:24.556Z,5.64
2023-01-09T19:15:20.572Z,5.64
2023-01-09T19:18:07.542Z,5.62
2023-01-09T19:20:40.705Z,5.62
2023-01-09T19:23:31.561Z,5.60
2023-01-09T19:26:11.647Z,5.61
2023-01-09T19:29:01.558Z,5.60
2023-01-09T19:31:42.600Z,5.58
2023-01-09T19:34:30.578Z,5.57
2023-01-09T19:37:03.843Z,5.58
2023-01-09T19:39:50.583Z,5.57
2023-01-09T19:42:23.719Z,5.57
2023-01-09T19:45:10.550Z,5.57
2023-01-09T19:48:04.571Z,5.57
2023-01-09T19:50:51.565Z,5.55
2023-01-09T19:53:32.547Z,5.55
2023-01-09T19:56:31.574Z,5.55
2023-01-09T19:59:25.565Z,5.54
2023-01-09T20:05:08.558Z,5.50
2023-01-09T20:07:46.589Z,5.51
2023-01-09T20:10:33.564Z,5.50
2023-01-09T20:13:06.690Z,5.50
2023-01-09T20:15:53.581Z,5.47
2023-01-09T20:18:26.698Z,5.48
2023-01-09T20:21:13.586Z,5.47
2023-01-09T20:23:46.686Z,5.49
2023-01-09T20:26:34.613Z,5.49
2023-01-09T20:29:11.230Z,5.50
2023-01-09T20:31:57.653Z,5.50
2023-01-09T20:34:37.594Z,5.50
2023-01-09T20:37:24.559Z,5.50
2023-01-09T20:40:07.584Z,5.50
2023-01-09T20:43:09.587Z,5.49
2023-01-09T20:46:03.643Z,5.50
2023-01-09T20:48:50.591Z,5.50
2023-01-09T20:51:31.573Z,5.50
2023-01-09T20:54:28.575Z,5.51
2023-01-09T20:57:15.616Z,5.51
2023-01-09T20:59:48.690Z,5.50
2023-01-09T21:02:35.582Z,5.51
2023-01-09T21:05:09.790Z,5.52
2023-01-09T21:07:56.582Z,5.50
2023-01-09T21:10:29.763Z,5.51
2023-01-09T21:13:16.608Z,5.50
2023-01-09T21:15:49.716Z,5.49
2023-01-09T21:18:36.562Z,5.46
2023-01-09T21:21:15.771Z,5.46
2023-01-09T21:24:04.605Z,5.43
2023-01-09T21:26:37.721Z,5.44
2023-01-09T21:29:24.591Z,5.44
2023-01-09T21:31:57.992Z,5.42
2023-01-09T21:34:44.600Z,5.41
2023-01-09T21:37:24.626Z,5.42
2023-01-09T21:40:27.622Z,5.37
2023-01-09T21:43:46.594Z,5.28
2023-01-09T21:46:58.604Z,5.22
2023-01-09T21:49:50.598Z,5.19
2023-01-09T21:52:32.617Z,5.17
2023-01-09T21:55:26.595Z,5.11
2023-01-09T21:58:13.610Z,5.11
2023-01-09T22:00:53.611Z,5.10
2023-01-09T22:03:47.688Z,5.10
2023-01-09T22:06:41.608Z,5.10
2023-01-09T22:09:28.631Z,5.09
2023-01-09T22:12:01.784Z,5.11
2023-01-09T22:14:48.637Z,5.11
2023-01-09T22:17:21.767Z,5.11
2023-01-09T22:20:08.615Z,5.12
2023-01-09T22:22:48.605Z,5.11
2023-01-09T22:25:35.623Z,5.11
2023-01-09T22:28:11.588Z,5.09
2023-01-09T22:30:58.665Z,5.06
2023-01-09T22:33:38.692Z,5.07
2023-01-09T22:36:32.684Z,5.01
2023-01-09T22:39:21.637Z,5.01
2023-01-09T22:41:59.199Z,5.02
2023-01-09T22:44:45.635Z,5.00
2023-01-09T22:47:25.701Z,5.00
2023-01-09T22:50:19.691Z,5.02
2023-01-09T22:53:06.619Z,5.03
2023-01-09T22:55:46.630Z,5.06
2023-01-09T22:58:42.619Z,5.09
2023-01-09T23:01:29.641Z,5.10
2023-01-09T23:04:04.720Z,5.11
2023-01-09T23:06:51.628Z,5.10
2023-01-09T23:09:24.878Z,5.09
2023-01-09T23:12:12.701Z,5.06
2023-01-09T23:15:11.630Z,5.05
2023-01-09T23:18:16.695Z,5.03
2023-01-09T23:21:17.622Z,5.05
2023-01-09T23:24:23.659Z,5.04
2023-01-09T23:27:15.761Z,5.05
2023-01-09T23:30:20.700Z,5.05
2023-01-09T23:33:19.650Z,5.03
2023-01-09T23:36:24.698Z,5.02
2023-01-09T23:39:16.842Z,5.02
2023-01-09T23:42:40.732Z,5.00
2023-01-09T23:45:40.102Z,5.00
2023-01-09T23:48:51.675Z,5.01
2023-01-09T23:51:56.704Z,5.01
2023-01-09T23:54:48.966Z,5.02
2023-01-09T23:57:53.664Z,5.01
